sensor_id;sensor_type;location;lat;lon;timestamp;P1;durP1;ratioP1;P2;durP2;ratioP2
57856;SDS011;43683;48.650;9.290;2023-08-06T00:01:48;10.25;;;5.15;;
57856;SDS011;43683;48.650;9.290;2023-08-06T00:04:14;9.10;;;5.43;;
57856;SDS011;43683;48.650;9.290;2023-08-06T00:06:40;10.60;;;5.35;;
57856;SDS011;43683;48.650;9.290;2023-08-06T00:09:05;9.15;;;5.75;;
57856;SDS011;43683;48.650;9.290;2023-08-06T00:11:31;10.38;;;5.88;;
57856;SDS011;43683;48.650;9.290;2023-08-06T00:13:56;9.43;;;5.43;;
57856;SDS011;43683;48.650;9.290;2023-08-06T00:16:22;9.20;;;5.38;;
57856;SDS011;43683;48.650;9.290;2023-08-06T00:18:47;10.48;;;5.25;;
57856;SDS011;43683;48.650;9.290;2023-08-06T00:21:13;9.75;;;5.25;;
57856;SDS011;43683;48.650;9.290;2023-08-06T00:23:39;10.32;;;5.80;;
57856;SDS011;43683;48.650;9.290;2023-08-06T00:26:05;11.13;;;5.88;;
57856;SDS011;43683;48.650;9.290;2023-08-06T00:28:31;10.52;;;5.90;;
57856;SDS011;43683;48.650;9.290;2023-08-06T00:30:56;9.90;;;5.78;;
57856;SDS011;43683;48.650;9.290;2023-08-06T00:33:22;10.75;;;6.45;;
57856;SDS011;43683;48.650;9.290;2023-08-06T00:35:49;10.43;;;6.28;;
57856;SDS011;43683;48.650;9.290;2023-08-06T00:38:14;9.95;;;5.85;;
57856;SDS011;43683;48.650;9.290;2023-08-06T00:40:40;9.15;;;5.57;;
57856;SDS011;43683;48.650;9.290;2023-08-06T00:43:05;11.63;;;6.22;;
57856;SDS011;43683;48.650;9.290;2023-08-06T00:45:33;12.23;;;6.63;;
57856;SDS011;43683;48.650;9.290;2023-08-06T00:48:00;11.10;;;6.95;;
57856;SDS011;43683;48.650;9.290;2023-08-06T00:50:26;10.33;;;6.20;;
57856;SDS011;43683;48.650;9.290;2023-08-06T00:52:52;11.60;;;5.88;;
57856;SDS011;43683;48.650;9.290;2023-08-06T00:55:19;8.57;;;5.20;;
57856;SDS011;43683;48.650;9.290;2023-08-06T00:57:44;8.68;;;5.35;;
57856;SDS011;43683;48.650;9.290;2023-08-06T01:00:10;11.00;;;6.20;;
57856;SDS011;43683;48.650;9.290;2023-08-06T01:02:36;10.63;;;6.20;;
57856;SDS011;43683;48.650;9.290;2023-08-06T01:05:02;9.95;;;5.70;;
57856;SDS011;43683;48.650;9.290;2023-08-06T01:12:48;12.18;;;6.13;;
57856;SDS011;43683;48.650;9.290;2023-08-06T01:15:35;10.50;;;5.95;;
57856;SDS011;43683;48.650;9.290;2023-08-06T01:18:08;9.90;;;6.00;;
57856;SDS011;43683;48.650;9.290;2023-08-06T01:20:35;9.93;;;5.75;;
57856;SDS011;43683;48.650;9.290;2023-08-06T01:23:00;8.73;;;5.05;;
57856;SDS011;43683;48.650;9.290;2023-08-06T01:25:30;9.23;;;4.97;;
57856;SDS011;43683;48.650;9.290;2023-08-06T01:28:04;9.73;;;5.15;;
57856;SDS011;43683;48.650;9.290;2023-08-06T01:30:41;8.07;;;4.63;;
57856;SDS011;43683;48.650;9.290;2023-08-06T01:33:07;7.80;;;4.70;;
57856;SDS011;43683;48.650;9.290;2023-08-06T01:35:38;7.70;;;4.72;;
57856;SDS011;43683;48.650;9.290;2023-08-06T01:38:04;7.75;;;4.28;;
57856;SDS011;43683;48.650;9.290;2023-08-06T01:40:29;6.90;;;4.45;;
57856;SDS011;43683;48.650;9.290;2023-08-06T01:42:55;6.75;;;4.03;;
57856;SDS011;43683;48.650;9.290;2023-08-06T01:45:21;7.07;;;4.30;;
57856;SDS011;43683;48.650;9.290;2023-08-06T01:47:46;8.15;;;4.13;;
57856;SDS011;43683;48.650;9.290;2023-08-06T01:50:12;7.03;;;3.92;;
57856;SDS011;43683;48.650;9.290;2023-08-06T01:52:37;7.25;;;3.83;;
57856;SDS011;43683;48.650;9.290;2023-08-06T01:55:03;8.07;;;4.30;;
57856;SDS011;43683;48.650;9.290;2023-08-06T01:57:29;8.30;;;4.28;;
57856;SDS011;43683;48.650;9.290;2023-08-06T01:59:54;8.52;;;4.05;;
57856;SDS011;43683;48.650;9.290;2023-08-06T02:02:20;5.53;;;3.60;;
57856;SDS011;43683;48.650;9.290;2023-08-06T02:04:45;6.25;;;3.90;;
57856;SDS011;43683;48.650;9.290;2023-08-06T02:07:11;6.40;;;3.35;;
57856;SDS011;43683;48.650;9.290;2023-08-06T02:09:36;6.93;;;3.45;;
57856;SDS011;43683;48.650;9.290;2023-08-06T02:12:02;5.97;;;3.58;;
57856;SDS011;43683;48.650;9.290;2023-08-06T02:14:28;5.60;;;3.22;;
57856;SDS011;43683;48.650;9.290;2023-08-06T02:16:53;5.60;;;3.55;;
57856;SDS011;43683;48.650;9.290;2023-08-06T02:19:19;7.32;;;3.70;;
57856;SDS011;43683;48.650;9.290;2023-08-06T02:21:44;10.45;;;3.78;;
57856;SDS011;43683;48.650;9.290;2023-08-06T02:24:10;10.05;;;3.45;;
57856;SDS011;43683;48.650;9.290;2023-08-06T02:26:36;7.38;;;3.90;;
57856;SDS011;43683;48.650;9.290;2023-08-06T02:29:01;7.60;;;3.88;;
57856;SDS011;43683;48.650;9.290;2023-08-06T02:31:27;4.90;;;3.20;;
57856;SDS011;43683;48.650;9.290;2023-08-06T02:33:52;6.30;;;3.35;;
57856;SDS011;43683;48.650;9.290;2023-08-06T02:36:18;6.05;;;3.30;;
57856;SDS011;43683;48.650;9.290;2023-08-06T02:38:44;6.63;;;3.35;;
57856;SDS011;43683;48.650;9.290;2023-08-06T02:41:09;6.47;;;3.33;;
57856;SDS011;43683;48.650;9.290;2023-08-06T02:43:35;7.38;;;3.25;;
57856;SDS011;43683;48.650;9.290;2023-08-06T02:46:00;5.68;;;3.10;;
57856;SDS011;43683;48.650;9.290;2023-08-06T02:48:26;4.97;;;3.00;;
57856;SDS011;43683;48.650;9.290;2023-08-06T02:50:52;6.57;;;3.40;;
57856;SDS011;43683;48.650;9.290;2023-08-06T02:53:17;5.90;;;3.08;;
57856;SDS011;43683;48.650;9.290;2023-08-06T02:55:46;7.10;;;3.25;;
57856;SDS011;43683;48.650;9.290;2023-08-06T02:58:15;5.47;;;3.20;;
57856;SDS011;43683;48.650;9.290;2023-08-06T03:00:42;5.10;;;3.22;;
57856;SDS011;43683;48.650;9.290;2023-08-06T03:03:08;5.82;;;3.17;;
57856;SDS011;43683;48.650;9.290;2023-08-06T03:05:33;6.20;;;3.10;;
57856;SDS011;43683;48.650;9.290;2023-08-06T03:07:59;5.70;;;3.08;;
57856;SDS011;43683;48.650;9.290;2023-08-06T03:10:25;7.30;;;3.53;;
57856;SDS011;43683;48.650;9.290;2023-08-06T03:12:50;4.43;;;2.80;;
57856;SDS011;43683;48.650;9.290;2023-08-06T03:15:16;5.05;;;2.80;;
57856;SDS011;43683;48.650;9.290;2023-08-06T03:17:41;6.30;;;3.20;;
57856;SDS011;43683;48.650;9.290;2023-08-06T03:20:07;5.53;;;2.65;;
57856;SDS011;43683;48.650;9.290;2023-08-06T03:22:33;6.13;;;2.90;;
57856;SDS011;43683;48.650;9.290;2023-08-06T03:24:58;5.40;;;3.22;;
57856;SDS011;43683;48.650;9.290;2023-08-06T03:27:24;5.10;;;2.92;;
57856;SDS011;43683;48.650;9.290;2023-08-06T03:29:49;5.25;;;2.60;;
57856;SDS011;43683;48.650;9.290;2023-08-06T03:32:15;5.40;;;2.67;;
57856;SDS011;43683;48.650;9.290;2023-08-06T03:34:41;4.70;;;2.13;;
57856;SDS011;43683;48.650;9.290;2023-08-06T03:37:06;6.63;;;2.67;;
57856;SDS011;43683;48.650;9.290;2023-08-06T03:39:32;5.22;;;2.47;;
57856;SDS011;43683;48.650;9.290;2023-08-06T03:41:57;4.65;;;2.30;;
57856;SDS011;43683;48.650;9.290;2023-08-06T03:44:23;4.72;;;2.33;;
57856;SDS011;43683;48.650;9.290;2023-08-06T03:46:48;5.00;;;2.30;;
57856;SDS011;43683;48.650;9.290;2023-08-06T03:49:14;4.47;;;2.60;;
57856;SDS011;43683;48.650;9.290;2023-08-06T03:51:39;4.82;;;2.30;;
57856;SDS011;43683;48.650;9.290;2023-08-06T03:54:05;3.95;;;2.00;;
57856;SDS011;43683;48.650;9.290;2023-08-06T03:56:30;4.03;;;2.15;;
57856;SDS011;43683;48.650;9.290;2023-08-06T03:58:56;3.53;;;1.90;;
57856;SDS011;43683;48.650;9.290;2023-08-06T04:01:21;4.15;;;2.20;;
57856;SDS011;43683;48.650;9.290;2023-08-06T04:03:47;4.53;;;2.10;;
57856;SDS011;43683;48.650;9.290;2023-08-06T04:06:12;4.47;;;2.05;;
57856;SDS011;43683;48.650;9.290;2023-08-06T04:08:38;4.07;;;2.08;;
57856;SDS011;43683;48.650;9.290;2023-08-06T04:11:04;3.60;;;2.00;;
57856;SDS011;43683;48.650;9.290;2023-08-06T04:13:29;3.67;;;2.10;;
57856;SDS011;43683;48.650;9.290;2023-08-06T04:15:55;3.20;;;1.75;;
57856;SDS011;43683;48.650;9.290;2023-08-06T04:18:25;3.72;;;2.00;;
57856;SDS011;43683;48.650;9.290;2023-08-06T04:20:51;4.13;;;1.90;;
57856;SDS011;43683;48.650;9.290;2023-08-06T04:23:17;4.60;;;2.00;;
57856;SDS011;43683;48.650;9.290;2023-08-06T04:25:43;3.78;;;1.92;;
57856;SDS011;43683;48.650;9.290;2023-08-06T04:28:08;3.55;;;2.17;;
57856;SDS011;43683;48.650;9.290;2023-08-06T04:30:34;3.92;;;2.03;;
57856;SDS011;43683;48.650;9.290;2023-08-06T04:32:59;4.57;;;2.55;;
57856;SDS011;43683;48.650;9.290;2023-08-06T04:35:25;5.72;;;2.65;;
57856;SDS011;43683;48.650;9.290;2023-08-06T04:37:50;2.60;;;1.65;;
57856;SDS011;43683;48.650;9.290;2023-08-06T04:40:16;4.70;;;2.03;;
57856;SDS011;43683;48.650;9.290;2023-08-06T04:42:42;3.45;;;1.58;;
57856;SDS011;43683;48.650;9.290;2023-08-06T04:45:07;2.97;;;1.50;;
57856;SDS011;43683;48.650;9.290;2023-08-06T04:47:33;2.05;;;1.40;;
57856;SDS011;43683;48.650;9.290;2023-08-06T04:49:59;2.30;;;1.50;;
57856;SDS011;43683;48.650;9.290;2023-08-06T04:52:24;1.33;;;1.10;;
57856;SDS011;43683;48.650;9.290;2023-08-06T04:54:53;2.05;;;1.17;;
57856;SDS011;43683;48.650;9.290;2023-08-06T04:57:21;3.47;;;1.10;;
57856;SDS011;43683;48.650;9.290;2023-08-06T04:59:46;3.78;;;1.00;;
57856;SDS011;43683;48.650;9.290;2023-08-06T05:02:12;1.20;;;1.10;;
57856;SDS011;43683;48.650;9.290;2023-08-06T05:04:38;2.58;;;1.33;;
57856;SDS011;43683;48.650;9.290;2023-08-06T05:07:04;1.35;;;1.02;;
57856;SDS011;43683;48.650;9.290;2023-08-06T05:09:30;2.47;;;1.07;;
57856;SDS011;43683;48.650;9.290;2023-08-06T05:11:56;2.63;;;1.10;;
57856;SDS011;43683;48.650;9.290;2023-08-06T05:14:21;2.10;;;0.90;;
57856;SDS011;43683;48.650;9.290;2023-08-06T05:16:47;2.17;;;1.13;;
57856;SDS011;43683;48.650;9.290;2023-08-06T05:19:12;4.20;;;1.20;;
57856;SDS011;43683;48.650;9.290;2023-08-06T05:21:38;1.33;;;0.93;;
57856;SDS011;43683;48.650;9.290;2023-08-06T05:24:03;1.73;;;1.13;;
57856;SDS011;43683;48.650;9.290;2023-08-06T05:26:29;3.13;;;1.35;;
57856;SDS011;43683;48.650;9.290;2023-08-06T05:28:54;2.85;;;1.60;;
57856;SDS011;43683;48.650;9.290;2023-08-06T05:31:20;2.72;;;1.23;;
57856;SDS011;43683;48.650;9.290;2023-08-06T05:33:46;2.17;;;1.20;;
57856;SDS011;43683;48.650;9.290;2023-08-06T05:36:11;2.28;;;1.38;;
57856;SDS011;43683;48.650;9.290;2023-08-06T05:38:37;2.25;;;1.05;;
57856;SDS011;43683;48.650;9.290;2023-08-06T05:41:02;1.17;;;0.98;;
57856;SDS011;43683;48.650;9.290;2023-08-06T05:43:28;1.85;;;1.10;;
57856;SDS011;43683;48.650;9.290;2023-08-06T05:45:54;2.10;;;1.08;;
57856;SDS011;43683;48.650;9.290;2023-08-06T05:48:20;2.20;;;1.00;;
57856;SDS011;43683;48.650;9.290;2023-08-06T05:50:47;2.60;;;0.87;;
57856;SDS011;43683;48.650;9.290;2023-08-06T05:53:13;2.03;;;0.88;;
57856;SDS011;43683;48.650;9.290;2023-08-06T05:55:38;1.55;;;0.75;;
57856;SDS011;43683;48.650;9.290;2023-08-06T05:58:04;1.88;;;1.00;;
57856;SDS011;43683;48.650;9.290;2023-08-06T06:00:30;1.98;;;0.90;;
57856;SDS011;43683;48.650;9.290;2023-08-06T06:02:55;0.70;;;0.70;;
57856;SDS011;43683;48.650;9.290;2023-08-06T06:05:21;1.80;;;0.93;;
57856;SDS011;43683;48.650;9.290;2023-08-06T06:07:46;2.30;;;0.82;;
57856;SDS011;43683;48.650;9.290;2023-08-06T06:10:12;2.30;;;1.02;;
57856;SDS011;43683;48.650;9.290;2023-08-06T06:12:38;2.90;;;1.00;;
57856;SDS011;43683;48.650;9.290;2023-08-06T06:15:04;2.90;;;0.93;;
57856;SDS011;43683;48.650;9.290;2023-08-06T06:17:30;2.40;;;0.90;;
57856;SDS011;43683;48.650;9.290;2023-08-06T06:19:55;3.95;;;0.70;;
57856;SDS011;43683;48.650;9.290;2023-08-06T06:22:21;1.25;;;0.75;;
57856;SDS011;43683;48.650;9.290;2023-08-06T06:24:46;1.42;;;0.80;;
57856;SDS011;43683;48.650;9.290;2023-08-06T06:27:12;1.20;;;0.63;;
57856;SDS011;43683;48.650;9.290;2023-08-06T06:29:38;2.92;;;0.80;;
57856;SDS011;43683;48.650;9.290;2023-08-06T06:32:04;0.70;;;0.68;;
57856;SDS011;43683;48.650;9.290;2023-08-06T06:34:29;1.92;;;0.80;;
57856;SDS011;43683;48.650;9.290;2023-08-06T06:36:55;1.05;;;0.70;;
57856;SDS011;43683;48.650;9.290;2023-08-06T06:39:20;2.15;;;0.80;;
57856;SDS011;43683;48.650;9.290;2023-08-06T06:41:46;0.93;;;0.85;;
57856;SDS011;43683;48.650;9.290;2023-08-06T06:44:12;2.67;;;0.80;;
57856;SDS011;43683;48.650;9.290;2023-08-06T06:46:41;1.90;;;0.70;;
57856;SDS011;43683;48.650;9.290;2023-08-06T06:49:06;2.83;;;0.90;;
57856;SDS011;43683;48.650;9.290;2023-08-06T06:51:32;2.08;;;0.80;;
57856;SDS011;43683;48.650;9.290;2023-08-06T06:53:57;0.85;;;0.82;;
57856;SDS011;43683;48.650;9.290;2023-08-06T06:56:23;0.68;;;0.68;;
57856;SDS011;43683;48.650;9.290;2023-08-06T06:58:48;2.65;;;1.35;;
57856;SDS011;43683;48.650;9.290;2023-08-06T07:01:14;0.60;;;0.60;;
57856;SDS011;43683;48.650;9.290;2023-08-06T07:03:40;2.10;;;0.80;;
57856;SDS011;43683;48.650;9.290;2023-08-06T07:06:06;0.80;;;0.80;;
57856;SDS011;43683;48.650;9.290;2023-08-06T07:08:31;2.30;;;0.70;;
57856;SDS011;43683;48.650;9.290;2023-08-06T07:11:16;1.95;;;0.70;;
57856;SDS011;43683;48.650;9.290;2023-08-06T07:13:41;0.73;;;0.50;;
57856;SDS011;43683;48.650;9.290;2023-08-06T07:18:40;1.42;;;0.95;;
57856;SDS011;43683;48.650;9.290;2023-08-06T07:21:06;0.60;;;0.60;;
57856;SDS011;43683;48.650;9.290;2023-08-06T07:23:32;2.45;;;0.90;;
57856;SDS011;43683;48.650;9.290;2023-08-06T07:25:58;1.40;;;0.60;;
57856;SDS011;43683;48.650;9.290;2023-08-06T07:28:23;0.90;;;0.60;;
57856;SDS011;43683;48.650;9.290;2023-08-06T07:30:54;0.70;;;0.70;;
57856;SDS011;43683;48.650;9.290;2023-08-06T07:33:19;0.50;;;0.50;;
57856;SDS011;43683;48.650;9.290;2023-08-06T07:35:46;0.70;;;0.70;;
57856;SDS011;43683;48.650;9.290;2023-08-06T07:38:12;1.10;;;0.60;;
57856;SDS011;43683;48.650;9.290;2023-08-06T07:40:38;0.52;;;0.52;;
57856;SDS011;43683;48.650;9.290;2023-08-06T07:43:03;0.50;;;0.50;;
57856;SDS011;43683;48.650;9.290;2023-08-06T07:45:36;1.17;;;0.60;;
57856;SDS011;43683;48.650;9.290;2023-08-06T07:48:02;0.50;;;0.50;;
57856;SDS011;43683;48.650;9.290;2023-08-06T07:50:28;0.70;;;0.60;;
57856;SDS011;43683;48.650;9.290;2023-08-06T07:52:54;0.63;;;0.60;;
57856;SDS011;43683;48.650;9.290;2023-08-06T07:55:20;0.70;;;0.60;;
57856;SDS011;43683;48.650;9.290;2023-08-06T07:57:45;0.43;;;0.43;;
57856;SDS011;43683;48.650;9.290;2023-08-06T08:00:11;0.50;;;0.50;;
57856;SDS011;43683;48.650;9.290;2023-08-06T08:02:36;0.70;;;0.45;;
57856;SDS011;43683;48.650;9.290;2023-08-06T08:05:02;2.05;;;0.50;;
57856;SDS011;43683;48.650;9.290;2023-08-06T08:07:27;1.30;;;0.73;;
57856;SDS011;43683;48.650;9.290;2023-08-06T08:09:55;1.23;;;0.60;;
57856;SDS011;43683;48.650;9.290;2023-08-06T08:12:21;0.40;;;0.40;;
57856;SDS011;43683;48.650;9.290;2023-08-06T08:14:47;0.40;;;0.40;;
57856;SDS011;43683;48.650;9.290;2023-08-06T08:17:13;1.00;;;0.40;;
57856;SDS011;43683;48.650;9.290;2023-08-06T08:19:39;0.40;;;0.40;;
57856;SDS011;43683;48.650;9.290;2023-08-06T08:22:05;0.50;;;0.50;;
57856;SDS011;43683;48.650;9.290;2023-08-06T08:24:31;0.40;;;0.40;;
57856;SDS011;43683;48.650;9.290;2023-08-06T08:26:56;0.50;;;0.50;;
57856;SDS011;43683;48.650;9.290;2023-08-06T08:29:22;0.52;;;0.52;;
57856;SDS011;43683;48.650;9.290;2023-08-06T08:31:48;1.40;;;0.40;;
57856;SDS011;43683;48.650;9.290;2023-08-06T08:34:16;0.57;;;0.47;;
57856;SDS011;43683;48.650;9.290;2023-08-06T08:36:42;0.73;;;0.50;;
57856;SDS011;43683;48.650;9.290;2023-08-06T08:39:08;0.40;;;0.40;;
57856;SDS011;43683;48.650;9.290;2023-08-06T08:41:35;0.32;;;0.30;;
57856;SDS011;43683;48.650;9.290;2023-08-06T08:44:02;0.82;;;0.32;;
57856;SDS011;43683;48.650;9.290;2023-08-06T08:46:30;0.20;;;0.20;;
57856;SDS011;43683;48.650;9.290;2023-08-06T08:48:57;0.30;;;0.30;;
57856;SDS011;43683;48.650;9.290;2023-08-06T08:51:24;0.30;;;0.30;;
57856;SDS011;43683;48.650;9.290;2023-08-06T08:53:52;0.25;;;0.25;;
57856;SDS011;43683;48.650;9.290;2023-08-06T08:56:21;0.40;;;0.40;;
57856;SDS011;43683;48.650;9.290;2023-08-06T08:58:47;0.70;;;0.40;;
57856;SDS011;43683;48.650;9.290;2023-08-06T09:01:13;0.40;;;0.40;;
57856;SDS011;43683;48.650;9.290;2023-08-06T09:03:40;0.30;;;0.30;;
57856;SDS011;43683;48.650;9.290;2023-08-06T09:06:08;0.40;;;0.40;;
57856;SDS011;43683;48.650;9.290;2023-08-06T09:08:37;0.32;;;0.32;;
57856;SDS011;43683;48.650;9.290;2023-08-06T09:11:21;0.30;;;0.30;;
57856;SDS011;43683;48.650;9.290;2023-08-06T09:13:47;0.38;;;0.38;;
57856;SDS011;43683;48.650;9.290;2023-08-06T09:16:13;0.30;;;0.30;;
57856;SDS011;43683;48.650;9.290;2023-08-06T09:18:38;0.68;;;0.38;;
57856;SDS011;43683;48.650;9.290;2023-08-06T09:21:05;0.30;;;0.30;;
57856;SDS011;43683;48.650;9.290;2023-08-06T09:23:31;0.30;;;0.30;;
57856;SDS011;43683;48.650;9.290;2023-08-06T09:25:58;0.30;;;0.30;;
57856;SDS011;43683;48.650;9.290;2023-08-06T09:28:24;0.30;;;0.30;;
57856;SDS011;43683;48.650;9.290;2023-08-06T09:31:01;0.90;;;0.30;;
57856;SDS011;43683;48.650;9.290;2023-08-06T09:33:26;0.30;;;0.30;;
57856;SDS011;43683;48.650;9.290;2023-08-06T09:35:54;0.25;;;0.25;;
57856;SDS011;43683;48.650;9.290;2023-08-06T09:38:20;0.47;;;0.30;;
57856;SDS011;43683;48.650;9.290;2023-08-06T09:40:45;1.08;;;0.38;;
57856;SDS011;43683;48.650;9.290;2023-08-06T09:43:12;0.23;;;0.23;;
57856;SDS011;43683;48.650;9.290;2023-08-06T09:45:38;1.10;;;0.30;;
57856;SDS011;43683;48.650;9.290;2023-08-06T09:48:05;1.13;;;0.20;;
57856;SDS011;43683;48.650;9.290;2023-08-06T09:50:33;0.30;;;0.30;;
57856;SDS011;43683;48.650;9.290;2023-08-06T09:53:03;0.38;;;0.38;;
57856;SDS011;43683;48.650;9.290;2023-08-06T09:55:30;0.30;;;0.30;;
57856;SDS011;43683;48.650;9.290;2023-08-06T09:57:57;0.30;;;0.30;;
57856;SDS011;43683;48.650;9.290;2023-08-06T10:00:24;0.63;;;0.28;;
57856;SDS011;43683;48.650;9.290;2023-08-06T10:02:51;0.20;;;0.20;;
57856;SDS011;43683;48.650;9.290;2023-08-06T10:05:21;0.57;;;0.30;;
57856;SDS011;43683;48.650;9.290;2023-08-06T10:07:47;0.28;;;0.28;;
57856;SDS011;43683;48.650;9.290;2023-08-06T10:10:15;0.20;;;0.20;;
57856;SDS011;43683;48.650;9.290;2023-08-06T10:12:43;0.50;;;0.40;;
57856;SDS011;43683;48.650;9.290;2023-08-06T10:15:16;0.30;;;0.30;;
57856;SDS011;43683;48.650;9.290;2023-08-06T10:17:46;0.40;;;0.40;;
57856;SDS011;43683;48.650;9.290;2023-08-06T10:22:42;0.75;;;0.35;;
57856;SDS011;43683;48.650;9.290;2023-08-06T10:25:09;0.30;;;0.30;;
57856;SDS011;43683;48.650;9.290;2023-08-06T10:27:35;0.38;;;0.38;;
57856;SDS011;43683;48.650;9.290;2023-08-06T10:32:50;0.40;;;0.40;;
57856;SDS011;43683;48.650;9.290;2023-08-06T10:35:27;0.38;;;0.38;;
57856;SDS011;43683;48.650;9.290;2023-08-06T10:38:09;1.48;;;0.50;;
57856;SDS011;43683;48.650;9.290;2023-08-06T10:40:37;0.43;;;0.43;;
57856;SDS011;43683;48.650;9.290;2023-08-06T10:43:05;0.40;;;0.40;;
57856;SDS011;43683;48.650;9.290;2023-08-06T10:45:36;0.40;;;0.40;;
57856;SDS011;43683;48.650;9.290;2023-08-06T10:48:02;0.43;;;0.43;;
57856;SDS011;43683;48.650;9.290;2023-08-06T10:50:29;0.32;;;0.32;;
57856;SDS011;43683;48.650;9.290;2023-08-06T10:52:56;0.32;;;0.32;;
57856;SDS011;43683;48.650;9.290;2023-08-06T10:55:26;0.60;;;0.50;;
57856;SDS011;43683;48.650;9.290;2023-08-06T10:57:52;0.40;;;0.40;;
57856;SDS011;43683;48.650;9.290;2023-08-06T11:00:18;0.40;;;0.40;;
57856;SDS011;43683;48.650;9.290;2023-08-06T11:02:47;0.40;;;0.40;;
57856;SDS011;43683;48.650;9.290;2023-08-06T11:05:13;0.60;;;0.50;;
57856;SDS011;43683;48.650;9.290;2023-08-06T11:07:39;0.30;;;0.30;;
57856;SDS011;43683;48.650;9.290;2023-08-06T11:10:06;0.43;;;0.40;;
57856;SDS011;43683;48.650;9.290;2023-08-06T11:12:34;0.40;;;0.40;;
57856;SDS011;43683;48.650;9.290;2023-08-06T11:15:00;0.40;;;0.40;;
57856;SDS011;43683;48.650;9.290;2023-08-06T11:17:27;0.47;;;0.40;;
57856;SDS011;43683;48.650;9.290;2023-08-06T11:19:54;1.35;;;0.50;;
57856;SDS011;43683;48.650;9.290;2023-08-06T11:22:20;1.00;;;0.95;;
57856;SDS011;43683;48.650;9.290;2023-08-06T11:24:47;0.60;;;0.60;;
57856;SDS011;43683;48.650;9.290;2023-08-06T11:27:16;1.45;;;0.50;;
57856;SDS011;43683;48.650;9.290;2023-08-06T11:29:42;0.57;;;0.50;;
57856;SDS011;43683;48.650;9.290;2023-08-06T11:32:09;1.25;;;0.50;;
57856;SDS011;43683;48.650;9.290;2023-08-06T11:34:35;0.95;;;0.50;;
57856;SDS011;43683;48.650;9.290;2023-08-06T11:37:02;0.40;;;0.40;;
57856;SDS011;43683;48.650;9.290;2023-08-06T11:39:31;0.52;;;0.52;;
57856;SDS011;43683;48.650;9.290;2023-08-06T11:41:57;1.20;;;0.70;;
57856;SDS011;43683;48.650;9.290;2023-08-06T11:44:25;0.35;;;0.35;;
57856;SDS011;43683;48.650;9.290;2023-08-06T11:47:00;0.50;;;0.50;;
57856;SDS011;43683;48.650;9.290;2023-08-06T11:49:38;1.65;;;0.40;;
57856;SDS011;43683;48.650;9.290;2023-08-06T11:55:11;0.52;;;0.40;;
57856;SDS011;43683;48.650;9.290;2023-08-06T11:57:36;0.40;;;0.40;;
57856;SDS011;43683;48.650;9.290;2023-08-06T12:00:09;0.50;;;0.50;;
57856;SDS011;43683;48.650;9.290;2023-08-06T12:02:36;0.43;;;0.43;;
57856;SDS011;43683;48.650;9.290;2023-08-06T12:05:14;0.50;;;0.30;;
57856;SDS011;43683;48.650;9.290;2023-08-06T12:07:41;1.10;;;0.50;;
57856;SDS011;43683;48.650;9.290;2023-08-06T12:12:34;0.40;;;0.30;;
57856;SDS011;43683;48.650;9.290;2023-08-06T12:15:01;1.45;;;0.40;;
57856;SDS011;43683;48.650;9.290;2023-08-06T12:17:27;1.15;;;0.60;;
57856;SDS011;43683;48.650;9.290;2023-08-06T12:19:52;0.50;;;0.50;;
57856;SDS011;43683;48.650;9.290;2023-08-06T12:22:18;0.30;;;0.30;;
57856;SDS011;43683;48.650;9.290;2023-08-06T12:24:45;0.40;;;0.40;;
57856;SDS011;43683;48.650;9.290;2023-08-06T12:27:11;0.55;;;0.52;;
57856;SDS011;43683;48.650;9.290;2023-08-06T12:29:47;0.50;;;0.50;;
57856;SDS011;43683;48.650;9.290;2023-08-06T12:32:13;0.55;;;0.50;;
57856;SDS011;43683;48.650;9.290;2023-08-06T12:34:39;0.93;;;0.55;;
57856;SDS011;43683;48.650;9.290;2023-08-06T12:37:05;0.55;;;0.50;;
57856;SDS011;43683;48.650;9.290;2023-08-06T12:39:35;0.50;;;0.50;;
57856;SDS011;43683;48.650;9.290;2023-08-06T12:42:02;1.00;;;0.70;;
57856;SDS011;43683;48.650;9.290;2023-08-06T12:44:28;0.47;;;0.47;;
57856;SDS011;43683;48.650;9.290;2023-08-06T12:46:54;0.50;;;0.50;;
57856;SDS011;43683;48.650;9.290;2023-08-06T12:49:20;0.65;;;0.43;;
57856;SDS011;43683;48.650;9.290;2023-08-06T12:51:46;0.75;;;0.60;;
57856;SDS011;43683;48.650;9.290;2023-08-06T12:54:18;0.70;;;0.70;;
57856;SDS011;43683;48.650;9.290;2023-08-06T12:56:44;2.20;;;0.80;;
57856;SDS011;43683;48.650;9.290;2023-08-06T12:59:12;1.60;;;0.70;;
57856;SDS011;43683;48.650;9.290;2023-08-06T13:01:41;1.15;;;1.00;;
57856;SDS011;43683;48.650;9.290;2023-08-06T13:04:07;0.70;;;0.70;;
57856;SDS011;43683;48.650;9.290;2023-08-06T13:06:33;0.40;;;0.40;;
57856;SDS011;43683;48.650;9.290;2023-08-06T13:09:02;0.82;;;0.57;;
57856;SDS011;43683;48.650;9.290;2023-08-06T13:11:28;1.08;;;0.70;;
57856;SDS011;43683;48.650;9.290;2023-08-06T13:13:56;1.27;;;0.70;;
57856;SDS011;43683;48.650;9.290;2023-08-06T13:16:29;0.80;;;0.60;;
57856;SDS011;43683;48.650;9.290;2023-08-06T13:18:55;2.35;;;0.75;;
57856;SDS011;43683;48.650;9.290;2023-08-06T13:21:20;1.25;;;0.50;;
57856;SDS011;43683;48.650;9.290;2023-08-06T13:23:46;1.17;;;0.65;;
57856;SDS011;43683;48.650;9.290;2023-08-06T13:26:12;1.02;;;0.55;;
57856;SDS011;43683;48.650;9.290;2023-08-06T13:28:38;0.77;;;0.77;;
57856;SDS011;43683;48.650;9.290;2023-08-06T13:31:03;0.68;;;0.60;;
57856;SDS011;43683;48.650;9.290;2023-08-06T13:33:29;0.82;;;0.50;;
57856;SDS011;43683;48.650;9.290;2023-08-06T13:35:54;0.60;;;0.60;;
57856;SDS011;43683;48.650;9.290;2023-08-06T13:38:20;1.05;;;0.60;;
57856;SDS011;43683;48.650;9.290;2023-08-06T13:40:46;0.70;;;0.70;;
57856;SDS011;43683;48.650;9.290;2023-08-06T13:43:11;0.60;;;0.57;;
57856;SDS011;43683;48.650;9.290;2023-08-06T13:45:37;0.88;;;0.60;;
57856;SDS011;43683;48.650;9.290;2023-08-06T13:48:03;0.60;;;0.55;;
57856;SDS011;43683;48.650;9.290;2023-08-06T13:50:29;0.60;;;0.60;;
57856;SDS011;43683;48.650;9.290;2023-08-06T13:52:54;0.50;;;0.50;;
57856;SDS011;43683;48.650;9.290;2023-08-06T13:55:20;0.40;;;0.40;;
57856;SDS011;43683;48.650;9.290;2023-08-06T13:57:46;0.88;;;0.57;;
57856;SDS011;43683;48.650;9.290;2023-08-06T14:00:12;0.50;;;0.50;;
57856;SDS011;43683;48.650;9.290;2023-08-06T14:02:38;0.63;;;0.50;;
57856;SDS011;43683;48.650;9.290;2023-08-06T14:05:03;0.82;;;0.55;;
57856;SDS011;43683;48.650;9.290;2023-08-06T14:07:30;0.50;;;0.50;;
57856;SDS011;43683;48.650;9.290;2023-08-06T14:09:55;2.95;;;0.60;;
57856;SDS011;43683;48.650;9.290;2023-08-06T14:12:22;0.47;;;0.47;;
57856;SDS011;43683;48.650;9.290;2023-08-06T14:14:48;1.60;;;0.60;;
57856;SDS011;43683;48.650;9.290;2023-08-06T14:17:13;0.60;;;0.60;;
57856;SDS011;43683;48.650;9.290;2023-08-06T14:19:40;0.65;;;0.50;;
57856;SDS011;43683;48.650;9.290;2023-08-06T14:22:06;1.05;;;0.70;;
57856;SDS011;43683;48.650;9.290;2023-08-06T14:24:31;0.50;;;0.50;;
57856;SDS011;43683;48.650;9.290;2023-08-06T14:26:57;1.42;;;0.60;;
57856;SDS011;43683;48.650;9.290;2023-08-06T14:29:22;1.55;;;0.55;;
57856;SDS011;43683;48.650;9.290;2023-08-06T14:31:48;0.50;;;0.50;;
57856;SDS011;43683;48.650;9.290;2023-08-06T14:34:14;1.52;;;0.77;;
57856;SDS011;43683;48.650;9.290;2023-08-06T14:36:39;0.75;;;0.60;;
57856;SDS011;43683;48.650;9.290;2023-08-06T14:39:05;0.65;;;0.60;;
57856;SDS011;43683;48.650;9.290;2023-08-06T14:41:30;0.65;;;0.63;;
57856;SDS011;43683;48.650;9.290;2023-08-06T14:43:56;1.42;;;0.63;;
57856;SDS011;43683;48.650;9.290;2023-08-06T14:46:21;0.77;;;0.65;;
57856;SDS011;43683;48.650;9.290;2023-08-06T14:48:47;1.13;;;0.60;;
57856;SDS011;43683;48.650;9.290;2023-08-06T14:51:13;1.15;;;0.60;;
57856;SDS011;43683;48.650;9.290;2023-08-06T14:53:39;2.38;;;0.98;;
57856;SDS011;43683;48.650;9.290;2023-08-06T14:56:05;3.53;;;1.63;;
57856;SDS011;43683;48.650;9.290;2023-08-06T14:58:31;1.00;;;0.80;;
57856;SDS011;43683;48.650;9.290;2023-08-06T15:00:56;1.85;;;0.98;;
57856;SDS011;43683;48.650;9.290;2023-08-06T15:03:22;1.13;;;1.02;;